EDDF 220520Z 21005KT 170V260 9999 FEW025 SCT045 12/06 Q1023 NOSIG=
EDDH 220520Z 25006KT 230V290 9999 FEW010 FEW030CB BKN060 10/09 Q1014 TEMPO BKN010=
EDDT 220520Z 26013KT 9999 BKN022 BKN045 11/07 Q1015 BECMG 27015G25KT=
EETN 220520Z 21020G31KT 9999 SCT021 13/09 Q0995 TEMPO SCT015CB=
EFHK 220520Z 19018KT 9999 BKN012 13/10 Q0992 BECMG BKN015 SCT020CB=
EPWA 220500Z 28010KT 240V320 9999 FEW013 12/06 Q1014 NOSIG=
EVRA 220520Z 21011KT CAVOK 13/10 Q1002 NOSIG=
EYVI 220520Z 25013KT 9999 BKN013 12/09 Q1008 NOSIG=
HECA 220500Z 05006KT 9999 FEW025 29/13 Q1013 NOSIG=
HEGN 220500Z 35007KT CAVOK 31/14 Q1011 NOSIG=
HESH 220500Z 01018KT CAVOK 32/16 Q1010 NOSIG=
LBBG 220500Z 25006KT 8000 NSC 21/19 Q1011 NOSIG=
LBSF 220500Z 00000KT 8000 2300E BR FEW002 16/15 Q1015 TEMPO 0600 BCFG=
LCLK 220500Z 22007KT CAVOK 25/18 Q1012 NOSIG=
LCPH 220500Z 29010KT 9999 SCT020 26/21 Q1013=
LEBL 220500Z VRB02KT CAVOK 23/17 Q1016 NOSIG=
LGTS 220520Z VRB02KT 9999 FEW020 24/15 Q1012 NOSIG=
LHBP 220500Z 29013KT 9999 -RA FEW009 SCT032 BKN095 17/17 Q1014 NOSIG=
LIRA 220520Z VRB02KT 9999 FEW020 SCT040 23/20 Q1015=
LKPR 220500Z 26008KT 9999 FEW020 10/05 Q1019 NOSIG=
LLBG 220520Z 04004KT 360V100 CAVOK 26/18 Q1013 NOSIG=
LOWW 220520Z 33010KT 9999 FEW050 SCT060 BKN140 15/06 Q1018 NOSIG=
LTAC 220450Z VRB01KT 9999 FEW040 18/14 Q1015 NOSIG=
LTAI 220450Z VRB03KT CAVOK 25/18 Q1011 NOSIG=
LTAJ 220450Z 27013KT CAVOK 24/14 Q1011 NOSIG=
LTAY 220450Z 00000KT 9999 SCT035 SCT100 18/16 Q1016=
LTAZ 220450Z 27005KT 190V320 9999 SCT040 19/13 Q1016=
LTBA 220450Z 21009KT 9999 SCT008 BKN100 23/21 Q1012 NOSIG=
LTBR 220450Z 00000KT 8000 FEW030 19/17 Q1013 NOSIG=
LTBS 220450Z 03003KT 330V070 CAVOK 23/18 Q1012 NOSIG=
LTBU 220450Z 00000KT 9999 FEW030 BKN100 22/14 Q1012=
LTCE 220450Z 09011KT 9999 FEW040 15/10 Q1018 NOSIG=
LTFE 220450Z 09004KT 9999 FEW035 22/18 Q1013 NOSIG=
LTFH 220450Z 00000KT 9999 FEW036 SCT100 26/17 Q1010 NOSIG=
LUKK 220500Z VRB01KT CAVOK 24/18 Q1010 R26/CLRD// NOSIG=
LYBE 220500Z 25009KT 9999 FEW040 21/17 Q1011 NOSIG=
OIII 220500Z 21006KT CAVOK 29/05 Q1012 A2991 NOSIG=
OIMM 220500Z 25004KT 9999 SCT035 FEW040CB 27/02 Q1015 A2997=
OLBA 220500Z 23005KT 9999 FEW026 26/19 Q1015 NOSIG=
OMDB 220500Z 20007KT 160V240 8000 NSC 33/26 Q1000 NOSIG=
OSDI 220500Z 20014KT CAVOK 22/15 Q1015=
UAAA 220500Z VRB01MPS 9999 SCT100 BKN200 26/09 Q1010 R05R/CLRD65 NOSIG=
UAAH 220500Z 20005MPS CAVOK 28/11 Q1006 NOSIG RMK QFE716/0955=
UAAT 220500Z VRB01MPS 9999 FEW050 30/02 Q1009 R02/CLRD65 NOSIG RMK QFE706/0942=
UACC 220500Z 25010MPS 9999 SCT050CB BKN110 24/13 Q1001 R22/0///70 NOSIG RMK QFE720/0960=
UACK 220500Z 26008MPS 9999 SCT050CB BKN150 23/05 Q0996 R20/010070 NOSIG RMK QFE724/0966=
UACP 220500Z 25005MPS CAVOK 18/12 Q0995 R23/0/0060 NOSIG RMK QFE734/0979=
UADD 220500Z 25006MPS 230V290 9999 NSC 31/M01 Q1009 R13/0///65 NOSIG RMK QFE700/0934=
UAII 220500Z VRB01MPS CAVOK 32/M01 Q1009 R28/0///70 NOSIG RMK QFE720/0960=
UAKD 220500Z 29009G14MPS 9999 FEW060 SCT100 30/06 Q1003 R22/0///65 NOSIG RMK QFE719/0959=
UAKK 220500Z 27008MPS CAVOK 27/07 Q1004 R23/0///70 NOSIG RMK QFE706/0942=
UAOO 220500Z 29004MPS 9999 BKN040 31/08 Q1006 R23/CLRD70 NOSIG RMK QFE743/0990=
UARR 220500Z 31008MPS CAVOK 23/04 Q1010 R22/CLRD70 NOSIG RMK QFE754/1005=
UASK 220500Z 15004MPS 100V200 9999 FEW033 31/12 Q1008 R12/090060 NOSIG RMK QFE731/0974=
UASP 220500Z 17003MPS CAVOK 25/15 Q1001 R21/0///70 NOSIG RMK QFE739/0986=
UASS 220500Z 23009MPS CAVOK 33/05 Q1005 NOSIG RMK QFE735/0981=
UATE 220500Z 24004MPS CAVOK 29/10 Q1011 R12/0///70 NOSIG RMK QFE756/1008=
UATG 220500Z 01003MPS CAVOK 27/05 Q1010 R32/CLRD70 NOSIG RMK QFE759/1013=
UATT 220500Z 33007MPS CAVOK 22/03 Q1007 R31/70D NOSIG RMK QFE735/0981=
UAUU 220500Z 30005MPS 250V320 9999 BKN039 17/08 Q0999 R33/CLRD70 NOSIG RMK QFE734/0978=
UBBB 220500Z 16007KT CAVOK 28/17 Q1011 R88/CLRD// NOSIG=
UBBG 220500Z 33006KT 300V360 9999 SCT100 25/14 Q1013 R30/CLRD// NOSIG=
UBBL 220500Z 13007KT 9000 SCT100 28/12 Q1012 R33/CLRD// NOSIG RMK MT OP=
UBBN 220500Z 32006KT 9999 SCT100 26/09 Q1012 R32L/CLRD// NOSIG RMK MT OP QFE685=
UBBQ 220500Z 00000KT 9999 NSC 26/12 Q1013 R16/CLRD// NOSIG RMK MT OP=
UBBY 220500Z 29006KT 9999 NSC 24/14 Q1016 R33/////// NOSIG RMK MT OP=
UBEE 220500Z 33003KT CAVOK 26/14 Q1012 R30/CLRD// NOSIG=
UCFL 220400Z 14004MPS 100V160 9999 FEW030 SCT100 18/10 Q1018 R07/CLRD70 RMK V/G/CH/Z=
UCFM 220500Z 10003MPS 010V150 CAVOK 30/08 Q1009 R08/CLRD70 NOSIG=
UCFO 220500Z 27003MPS 240V300 9999 FEW049 BKN130 27/12 Q1011 R12/CLRD70 NOSIG=
UDSG 220500Z 07012KT 9999 FEW049 20/10 Q1017 R02/CLRD70 NOSIG=
UDYZ 220500Z 13002KT 9999 NSC 23/10 Q1013 R09/000070 NOSIG=
UEEE 220500Z 21001MPS 9999 SCT050CB 19/09 Q1005 R23L/09//60 NOSIG RMK QFE745=
UGKO 220500Z 25007KT 200V280 CAVOK 26/21 Q1009 NOSIG=
UGSB 220500Z 13007KT 9999 FEW026CB 26/20 Q1010 NOSIG=
UGTB 220500Z 18005KT 140V210 CAVOK 24/14 Q1016 NOSIG=
UHHH 220500Z 12002MPS 040V180 9999 OVC024 19/13 Q0997 R23L/090060 NOSIG RMK QFE742/0989=
UHMA 220500Z 29004MPS 9999 SCT023 16/04 Q1012 R88/CLRD60 NOSIG RMK END R01/29005MPS QFE755/1007=
UHMM 220500Z 14003MPS 090V170 9999 SCT040 19/10 Q1010 R10/CLRD70 NOSIG RMK QFE742=
UHPP 220500Z 20006MPS 9999 SCT007 BKN033CB 09/06 Q1012 R16R/CLRD70 NOSIG RMK MT OBSC QFE756/1008=
UHSS 220500Z 19002MPS 130V240 9999 BKN016 17/14 Q0994 R01/190065 NOSIG RMK MT OBSC QFE744/0993=
UHWW 220500Z 32004G10MPS 220V030 9999 FEW023 28/12 Q1001 R25L/0///70 NOSIG RMK QFE750=
UIAA 220500Z 09002MPS 9999 NSC 28/10 Q1003 R29/CLRD70 NOSIG RMK QFE694/0925=
UIBB 220500Z 10004MPS 070V130 9999 SCT040CB 17/15 Q1009 RETS R30/290150 NOSIG RMK QFE714/0952=
UIII 220500Z 29008MPS 9999 BKN031CB 21/15 Q1009 R30/CLRD60 NOSIG RMK QFE712/0950=
UIUU 220500Z 01006MPS 9999 FEW046CB 29/12 Q1004 R26/CLRD60 NOSIG RMK QFE709/0945=
UKBB 220500Z 19005MPS CAVOK 24/16 Q1010 R88/CLRD// NOSIG=
UKDD 220500Z 14003MPS 110V200 CAVOK 24/12 Q1012 R08/090070 NOSIG=
UKDE 220500Z 11004MPS 070V130 CAVOK 27/12 Q1011 R02R/CLRD70 NOSIG=
UKDR 220500Z 12003MPS 080V180 CAVOK 25/11 Q1011 R36/09//70 NOSIG=
UKHH 220500Z 16003MPS CAVOK 24/12 Q1013 R07/0///72 NOSIG=
UKKK 220500Z 20003MPS 160V230 CAVOK 23/16 Q1009 R26/70D NOSIG=
UKKM 220500Z 20005MPS CAVOK 26/17 Q1009=
UKLI 220500Z 30006MPS 270V350 9999 BKN015CB BKN030 13/11 Q1014 R28/090070 NOSIG=
UKLL 220500Z 28002MPS 230V340 9999 BKN007 BKN017CB 12/10 Q1014 R31/290055 TEMPO BKN007=
UKLN 220500Z 30010G16MPS 260V330 9999 SCT018CB 19/15 Q1011 R33/09//70 TEMPO VRB10G15MPS 2100 -TSRAGR BKN007 BKN020CB=
UKLR 220500Z 30007MPS 9999 SCT024CB SCT024 14/10 Q1012 R29/090070 NOSIG=
UKLU 220500Z 28002MPS 250V310 9999 -SHRA SCT040CB SCT040 17/12 Q1012 TEMPO 35010G15MPS 2000 -TSRA BKN007 BKN015CB=
UKOH 220500Z 10002MPS 070V130 CAVOK 26/13 Q1010 R03/CLRD// NOSIG=
UKON 220500Z 12002MPS CAVOK 25/11 Q1010 NOSIG=
UKOO 220500Z 00000MPS CAVOK 26/15 Q1010 R16/090060 NOSIG=
UKWW 220500Z 20003MPS 9999 FEW030CB BKN100 23/16 Q1010 NOSIG=
ULAA 220500Z 00000MPS CAVOK 19/09 Q1006 R26/CLRD70 NOSIG RMK QFE753/1004=
ULLI 220500Z 18003MPS 9999 SCT027CB 18/14 Q0997 R88/290050 NOSIG=
ULMM 220500Z 13001MPS 9999 SCT007 BKN021 10/08 Q1004 R31/190060 NOSIG RMK OBST OBSC QFE746=
ULOO 220500Z 24006MPS 210V280 P5000 FEW014CB BKN022 15/10 Q1001 NOSIG RMK QFE747=
ULPB 220500Z 10003MPS 050V150 CAVOK 14/10 Q0999 NOSIG RMK QFE745/0994=
ULWC 220500Z 16005MPS CAVOK 20/15 Q1007 R21/010060 NOSIG RMK QFE745/0994=
UMBB 220500Z 28005G08MPS 8000 BKN020CB SCT100 13/10 Q1012 NOSIG=
UMGG 220500Z 18005G08MPS CAVOK 24/17 Q1008 R28/CLRD// NOSIG=
UMII 220500Z 19004MPS 9999 SCT026CB SCT100 19/15 Q1004 TEMPO 2000 SHRA BKN005=
UMKK 220500Z 23008MPS 9999 SCT019 13/09 Q1007 R24/19//60 NOSIG RMK QFE754/1006=
UMMG 220500Z 23004G07MPS 9999 BKN015 BKN066 12/10 Q1009 NOSIG=
UMMS 220500Z 29004G07MPS 9999 -RA BKN022 BKN093 14/11 Q1007 R31/290055 NOSIG=
UMOO 220500Z 19005MPS CAVOK 19/16 Q1005 NOSIG=
UNAA 220500Z 00000MPS CAVOK 26/12 Q1010 R20/090065 NOSIG RMK QFE735=
UNBB 220500Z 16005MPS CAVOK 27/12 Q1006 R24/CLRD66 NOSIG RMK QFE732=
UNEE 220500Z 15004MPS CAVOK 24/16 Q1006 R23/CLRD60 NOSIG RMK QFE732=
UNKL 220500Z 22002MPS 110V270 9999 SCT048 23/11 Q1009 R29/CLRD65 NOSIG RMK QFE731=
UNNT 220500Z 17005MPS CAVOK 25/18 Q1002 R16/090070 R25/090070 NOSIG RMK QFE742/0989=
UNOO 220500Z 18003MPS 9999 SCT033CB BKN033 20/13 Q0998 R25/CLRD60 NOSIG RMK QFE740=
UNTT 220500Z 18007MPS CAVOK 25/14 Q1003 R21/190055 NOSIG RMK QFE738=
URKA 220500Z 00000MPS CAVOK 28/18 Q1010 R04/010070 NOSIG RMK QFE753/1004=
URKK 220500Z 08003MPS 060V120 CAVOK 26/14 Q1010 R05R/CLRD70 NOSIG RMK QFE754=
URMG 220500Z VRB01MPS CAVOK 26/12 Q1012 R08/000070 NOSIG RMK QFE744/0992=
URML 220500Z 11002MPS 060V160 9999 NSC 30/10 Q1010 R32/01//70 NOSIG RMK QFE757/1010=
URMM 220500Z VRB01MPS 9999 NSC 25/12 Q1012 R12/090070 NOSIG RMK QFE731/0975=
URMN 220500Z 00000MPS 9999 NSC 27/07 Q1012 R24/010070 NOSIG RMK QFE723=
URMO 220500Z 29002MPS 9999 NSC 23/14 Q1014 R09/010070 NOSIG RMK QFE716/0955=
URMT 220500Z 11004MPS CAVOK 26/10 Q1013 R07/010070 NOSIG RMK QFE720=
URRP 220500Z 09006MPS CAVOK 26/11 Q1013 R05/CLRD70 NOSIG RMK QFE755/1007=
URSS 220500Z 27003MPS 9999 SCT110 26/20 Q1010 R06/090070 R02/090070 NOSIG RMK R02/03001MPS QFE756=
URWA 220500Z 05005MPS CAVOK 28/02 Q1011 R27/010070 NOSIG RMK QFE760/1014=
URWI 220500Z 09006MPS CAVOK 28/04 Q1013 NOSIG=
URWW 220500Z 08003MPS 050V130 CAVOK 26/09 Q1014 R06/010070 NOSIG=
USCC 220500Z 26007G12MPS 9999 BKN020CB 14/09 Q0996 R27/000060 NOSIG RMK QFE728=
USCM 220500Z 27005MPS 9999 OVC025CB 13/08 Q1002 R18/090065 NOSIG RMK QFE714=
USHH 220500Z 23003MPS 190V280 9999 SCT030CB 17/11 Q0990 R24/010060 TEMPO 3000 -SHRA BKN007CB RMK QFE739=
USNN 220500Z 20007MPS CAVOK 19/13 Q0993 R21/15//65 NOSIG RMK QFE740=
USPP 220500Z 27005MPS 9999 BKN018 15/13 Q0998 R21/090060 NOSIG RMK QFE738=
USRR 220500Z 23008MPS 9999 SCT036 18/10 Q0991 R25/220060 NOSIG RMK QFE738=
USSS 220500Z 29009MPS 9999 OVC012CB 13/11 Q0994 R26L/290050 R26R/290042 TEMPO 28015MPS RMK QFE725/0967=
USTR 220500Z 25005MPS 9999 SCT010 OVC020CB 12/10 Q0993 R21/290060 TEMPO 27014MPS 1000 TSRA VV004 RMK QFE735/0980=
UTAA 220500Z 31012KT 9999 NSC 30/12 Q1011 R88/70D NOSIG=
UTAK 220500Z 36008KT CAVOK 27/11 Q1012 NOSIG=
UTAM 220500Z 20006KT CAVOK 32/07 Q1008 NOSIG=
UTAT 220500Z 27012KT CAVOK 30/12 Q1008 NOSIG=
UTAV 220500Z 03010KT CAVOK 33/07 Q1008 NOSIG=
UTDD 220500Z 12003MPS 080V160 9999 NSC 30/08 Q1010 R09/CLRD// NOSIG RMK QFE690/0920=
UTDK 220500Z VRB02MPS 9999 NSC 32/07 Q1010 R01/09//70 RMK QFE700/0934=
UTDL 220500Z 08007MPS 9999 FEW046 29/08 Q1009 R08/CLRD70 NOSIG RMK QFE718/0957=
UTDT 220500Z 23002MPS 180V300 9999 NSC 32/09 Q1008 35CLRD70 RMK QFE717/0956=
UTFA 220300Z VRB02KT 9999 NSC 24/13 Q1011 R88/09//70=
UTFF 220500Z 31004KT 240V360 9999 NSC 28/11 Q1010 R18/CLRD70=
UTNN 220500Z 21008KT CAVOK 31/11 Q1008 R33/CLRD60 NOSIG=
UTNU 220500Z 27010KT CAVOK 31/10 Q1008 R31/CLRD70 NOSIG=
UTSA 220500Z 34006KT 290V360 9999 NSC 31/06 Q1009 R25/CLRD70 NOSIG=
UTSB 220500Z 34012KT CAVOK 31/07 Q1008 R01/CLRD70 NOSIG=
UTSK 220430Z 36010KT CAVOK 30/11 Q1008 R34/CLRD70=
UTSS 220430Z 07002KT 9999 NSC 29/07 Q1010 R09/70D NOSIG=
UTST 220500Z 29006KT 250V310 CAVOK 30/03 Q1007 R88/CLRD70 NOSIG=
UTTT 220500Z 28004KT CAVOK 31/08 Q1009 R08R/CLRD70 NOSIG=
UUBC 220500Z 17004MPS CAVOK 23/14 Q1011 R13/////// NOSIG RMK QFE740/0987=
UUBP 220500Z 16004MPS CAVOK 22/15 Q1009 R34/CLRD70 NOSIG RMK QFE739/0986=
UUBW 220500Z 16002MPS 120V190 CAVOK 23/14 Q1011 R30/010060 NOSIG=
UUDD 220500Z 19004MPS CAVOK 23/13 Q1012 R88/010095 NOSIG=
UUDL 220500Z 18002MPS 130V210 CAVOK 20/14 Q1011 R23/010060 NOSIG RMK QFE750=
UUEE 220500Z 15004MPS CAVOK 22/14 Q1011 R24C/CLRD62 R24L/CLRD62 NOSIG=
UUMO 220500Z 18003MPS CAVOK 22/14 Q1011 R26/090060 NOSIG RMK QFE743/0991=
UUOB 220500Z 16003MPS CAVOK 23/14 Q1013 R11/090060 NOSIG=
UUOK 220500Z 17003MPS CAVOK 23/14 Q1013 R12/CLRD65 NOSIG RMK QFE742/0989=
UUOO 220500Z 16003MPS CAVOK 24/12 Q1014 R12/090070 NOSIG RMK QFE746=
UUWW 220500Z 19006MPS CAVOK 22/13 Q1011 R19/000070 R24/000070 NOSIG=
UUYY 220500Z VRB02MPS 9999 SCT020 19/13 Q1002 R36/CLRD61 NOSIG RMK QFE742/0990=
UWGG 220500Z 27001MPS CAVOK 19/12 Q1013 R36R/090070 NOSIG=
UWKD 220500Z 31005G10MPS CAVOK 19/07 Q1009 R29/CLRD70 NOSIG RMK QFE746/0994=
UWKE 220500Z 31005G10MPS 9999 BKN022 16/11 Q1006 R21/210370 NOSIG RMK QFE737/0983=
UWKS 220500Z 31005MPS CAVOK 18/06 Q1011 R24/010060 NOSIG RMK QFE744=
UWLW 220500Z 31006MPS 8000 NSC 19/09 Q1011 R20/CLRD60 NOSIG RMK QFE752=
UWOO 220500Z 28007MPS CAVOK 22/06 Q1007 R26/CLRD65 NOSIG RMK QFE744/0993=
UWOR 220500Z 32007MPS CAVOK 21/07 Q1005 R25/CLRD65 NOSIG RMK QFE730/0974=
UWSS 220500Z 36003MPS CAVOK 21/10 Q1014 R30/010095 NOSIG RMK QFE747=
UWUU 220500Z 31006MPS 9999 OVC010 15/13 Q1003 R32L/0///60 NOSIG RMK QBB300 QFE740/0987=
UWWW 220500Z 31006MPS 290V350 CAVOK 20/08 Q1010 R33/CLRD60 NOSIG RMK QFE747/0996=
ZMUB 220530Z 35004MPS 310V040 9999 FEW033 27/06 Q1007 NOSIG RMK QFE648.7 27 MOP=